sensor_id;sensor_type;location;lat;lon;timestamp;P1;durP1;ratioP1;P2;durP2;ratioP2
37859;SDS011;23698;52.014;5.190;2023-11-18T00:02:31;51.33;;;25.10;;
37859;SDS011;23698;52.014;5.190;2023-11-18T00:05:20;65.40;;;24.17;;
37859;SDS011;23698;52.014;5.190;2023-11-18T00:08:08;53.00;;;24.45;;
37859;SDS011;23698;52.014;5.190;2023-11-18T00:10:55;56.33;;;24.77;;
37859;SDS011;23698;52.014;5.190;2023-11-18T00:13:41;63.10;;;24.70;;
37859;SDS011;23698;52.014;5.190;2023-11-18T00:16:28;60.45;;;23.63;;
37859;SDS011;23698;52.014;5.190;2023-11-18T00:19:15;60.72;;;25.38;;
37859;SDS011;23698;52.014;5.190;2023-11-18T00:22:03;59.15;;;24.35;;
37859;SDS011;23698;52.014;5.190;2023-11-18T00:24:50;60.08;;;24.23;;
37859;SDS011;23698;52.014;5.190;2023-11-18T00:27:37;52.85;;;24.05;;
37859;SDS011;23698;52.014;5.190;2023-11-18T00:30:24;51.60;;;23.42;;
37859;SDS011;23698;52.014;5.190;2023-11-18T00:33:10;57.10;;;26.27;;
37859;SDS011;23698;52.014;5.190;2023-11-18T00:35:57;50.45;;;23.95;;
37859;SDS011;23698;52.014;5.190;2023-11-18T00:38:46;53.50;;;24.00;;
37859;SDS011;23698;52.014;5.190;2023-11-18T00:41:32;52.85;;;23.77;;
37859;SDS011;23698;52.014;5.190;2023-11-18T00:44:18;56.50;;;23.27;;
37859;SDS011;23698;52.014;5.190;2023-11-18T00:47:05;53.83;;;23.33;;
37859;SDS011;23698;52.014;5.190;2023-11-18T00:49:51;57.00;;;23.88;;
37859;SDS011;23698;52.014;5.190;2023-11-18T00:52:38;51.78;;;23.13;;
37859;SDS011;23698;52.014;5.190;2023-11-18T00:55:28;53.55;;;23.70;;
37859;SDS011;23698;52.014;5.190;2023-11-18T00:58:14;48.13;;;23.38;;
37859;SDS011;23698;52.014;5.190;2023-11-18T01:01:00;44.67;;;21.63;;
37859;SDS011;23698;52.014;5.190;2023-11-18T01:03:47;49.85;;;22.67;;
37859;SDS011;23698;52.014;5.190;2023-11-18T01:06:34;46.63;;;23.92;;
37859;SDS011;23698;52.014;5.190;2023-11-18T01:09:20;51.45;;;23.23;;
37859;SDS011;23698;52.014;5.190;2023-11-18T01:12:08;45.08;;;21.25;;
37859;SDS011;23698;52.014;5.190;2023-11-18T01:14:56;44.05;;;21.83;;
37859;SDS011;23698;52.014;5.190;2023-11-18T01:17:42;49.70;;;21.45;;
37859;SDS011;23698;52.014;5.190;2023-11-18T01:20:29;49.53;;;21.55;;
37859;SDS011;23698;52.014;5.190;2023-11-18T01:23:16;47.65;;;21.10;;
37859;SDS011;23698;52.014;5.190;2023-11-18T01:26:02;49.85;;;22.38;;
37859;SDS011;23698;52.014;5.190;2023-11-18T01:28:52;45.78;;;22.25;;
37859;SDS011;23698;52.014;5.190;2023-11-18T01:31:40;50.67;;;22.50;;
37859;SDS011;23698;52.014;5.190;2023-11-18T01:34:36;53.50;;;22.75;;
37859;SDS011;23698;52.014;5.190;2023-11-18T01:37:24;48.95;;;22.52;;
37859;SDS011;23698;52.014;5.190;2023-11-18T01:40:12;47.33;;;22.10;;
37859;SDS011;23698;52.014;5.190;2023-11-18T01:43:00;49.25;;;23.08;;
37859;SDS011;23698;52.014;5.190;2023-11-18T01:45:51;46.35;;;22.10;;
37859;SDS011;23698;52.014;5.190;2023-11-18T01:48:38;53.47;;;22.88;;
37859;SDS011;23698;52.014;5.190;2023-11-18T01:51:26;45.58;;;23.25;;
37859;SDS011;23698;52.014;5.190;2023-11-18T01:54:13;42.97;;;22.27;;
37859;SDS011;23698;52.014;5.190;2023-11-18T01:57:04;48.38;;;21.77;;
37859;SDS011;23698;52.014;5.190;2023-11-18T01:59:51;44.00;;;21.42;;
37859;SDS011;23698;52.014;5.190;2023-11-18T02:02:39;49.55;;;22.30;;
37859;SDS011;23698;52.014;5.190;2023-11-18T02:05:26;44.90;;;21.98;;
37859;SDS011;23698;52.014;5.190;2023-11-18T02:08:12;46.95;;;21.83;;
37859;SDS011;23698;52.014;5.190;2023-11-18T02:11:00;47.58;;;21.52;;
37859;SDS011;23698;52.014;5.190;2023-11-18T02:13:56;41.15;;;21.92;;
37859;SDS011;23698;52.014;5.190;2023-11-18T02:16:48;43.08;;;20.48;;
37859;SDS011;23698;52.014;5.190;2023-11-18T02:19:39;47.15;;;22.10;;
37859;SDS011;23698;52.014;5.190;2023-11-18T02:22:26;47.30;;;22.27;;
37859;SDS011;23698;52.014;5.190;2023-11-18T02:25:15;44.22;;;20.90;;
37859;SDS011;23698;52.014;5.190;2023-11-18T02:28:04;42.63;;;21.57;;
37859;SDS011;23698;52.014;5.190;2023-11-18T02:30:51;44.20;;;22.30;;
37859;SDS011;23698;52.014;5.190;2023-11-18T02:33:44;45.65;;;22.52;;
37859;SDS011;23698;52.014;5.190;2023-11-18T02:36:41;41.60;;;20.05;;
37859;SDS011;23698;52.014;5.190;2023-11-18T02:39:32;46.38;;;21.73;;
37859;SDS011;23698;52.014;5.190;2023-11-18T02:42:26;48.67;;;23.45;;
37859;SDS011;23698;52.014;5.190;2023-11-18T02:45:14;45.17;;;22.20;;
37859;SDS011;23698;52.014;5.190;2023-11-18T02:48:02;46.55;;;23.58;;
37859;SDS011;23698;52.014;5.190;2023-11-18T02:50:52;48.38;;;23.73;;
37859;SDS011;23698;52.014;5.190;2023-11-18T02:53:39;46.45;;;23.65;;
37859;SDS011;23698;52.014;5.190;2023-11-18T02:56:29;49.78;;;24.10;;
37859;SDS011;23698;52.014;5.190;2023-11-18T02:59:16;48.95;;;24.05;;
37859;SDS011;23698;52.014;5.190;2023-11-18T03:02:04;53.70;;;23.70;;
37859;SDS011;23698;52.014;5.190;2023-11-18T03:04:51;50.38;;;23.65;;
37859;SDS011;23698;52.014;5.190;2023-11-18T03:07:37;51.00;;;25.02;;
37859;SDS011;23698;52.014;5.190;2023-11-18T03:10:24;50.65;;;24.88;;
37859;SDS011;23698;52.014;5.190;2023-11-18T03:13:11;48.45;;;24.35;;
37859;SDS011;23698;52.014;5.190;2023-11-18T03:15:58;43.30;;;24.00;;
37859;SDS011;23698;52.014;5.190;2023-11-18T03:18:46;51.75;;;25.05;;
37859;SDS011;23698;52.014;5.190;2023-11-18T03:21:33;47.42;;;23.70;;
37859;SDS011;23698;52.014;5.190;2023-11-18T03:24:20;52.90;;;26.05;;
37859;SDS011;23698;52.014;5.190;2023-11-18T03:27:06;53.22;;;25.38;;
37859;SDS011;23698;52.014;5.190;2023-11-18T03:29:53;50.50;;;24.67;;
37859;SDS011;23698;52.014;5.190;2023-11-18T03:32:40;54.10;;;25.27;;
37859;SDS011;23698;52.014;5.190;2023-11-18T03:35:28;54.78;;;25.35;;
37859;SDS011;23698;52.014;5.190;2023-11-18T03:38:15;46.42;;;23.92;;
37859;SDS011;23698;52.014;5.190;2023-11-18T03:41:02;54.08;;;25.40;;
37859;SDS011;23698;52.014;5.190;2023-11-18T03:43:48;47.50;;;23.83;;
37859;SDS011;23698;52.014;5.190;2023-11-18T03:46:35;50.95;;;25.65;;
37859;SDS011;23698;52.014;5.190;2023-11-18T03:49:21;47.60;;;24.30;;
37859;SDS011;23698;52.014;5.190;2023-11-18T03:52:09;51.28;;;24.08;;
37859;SDS011;23698;52.014;5.190;2023-11-18T03:54:55;47.80;;;24.45;;
37859;SDS011;23698;52.014;5.190;2023-11-18T03:57:42;54.72;;;24.73;;
37859;SDS011;23698;52.014;5.190;2023-11-18T04:00:30;53.70;;;24.35;;
37859;SDS011;23698;52.014;5.190;2023-11-18T04:03:17;47.00;;;24.92;;
37859;SDS011;23698;52.014;5.190;2023-11-18T04:06:04;46.35;;;24.83;;
37859;SDS011;23698;52.014;5.190;2023-11-18T04:08:54;48.63;;;24.30;;
37859;SDS011;23698;52.014;5.190;2023-11-18T04:11:41;54.45;;;25.83;;
37859;SDS011;23698;52.014;5.190;2023-11-18T04:14:29;49.05;;;25.60;;
37859;SDS011;23698;52.014;5.190;2023-11-18T04:17:16;49.22;;;25.67;;
37859;SDS011;23698;52.014;5.190;2023-11-18T04:20:04;49.38;;;26.20;;
37859;SDS011;23698;52.014;5.190;2023-11-18T04:22:56;55.85;;;26.85;;
37859;SDS011;23698;52.014;5.190;2023-11-18T04:25:43;55.75;;;26.63;;
37859;SDS011;23698;52.014;5.190;2023-11-18T04:28:30;51.83;;;26.38;;
37859;SDS011;23698;52.014;5.190;2023-11-18T04:31:16;54.35;;;27.88;;
37859;SDS011;23698;52.014;5.190;2023-11-18T04:34:03;57.30;;;28.38;;
37859;SDS011;23698;52.014;5.190;2023-11-18T04:36:50;52.63;;;27.40;;
37859;SDS011;23698;52.014;5.190;2023-11-18T04:39:36;64.45;;;28.45;;
37859;SDS011;23698;52.014;5.190;2023-11-18T04:42:24;62.22;;;28.92;;
37859;SDS011;23698;52.014;5.190;2023-11-18T04:45:11;60.03;;;27.98;;
37859;SDS011;23698;52.014;5.190;2023-11-18T04:47:59;56.08;;;28.30;;
37859;SDS011;23698;52.014;5.190;2023-11-18T04:50:45;59.17;;;27.40;;
37859;SDS011;23698;52.014;5.190;2023-11-18T04:53:32;58.58;;;27.20;;
37859;SDS011;23698;52.014;5.190;2023-11-18T04:56:19;61.17;;;28.80;;
37859;SDS011;23698;52.014;5.190;2023-11-18T04:59:07;55.90;;;27.70;;
37859;SDS011;23698;52.014;5.190;2023-11-18T05:01:53;56.47;;;26.77;;
37859;SDS011;23698;52.014;5.190;2023-11-18T05:04:40;79.22;;;30.50;;
37859;SDS011;23698;52.014;5.190;2023-11-18T05:07:26;61.42;;;28.05;;
37859;SDS011;23698;52.014;5.190;2023-11-18T05:10:14;60.38;;;27.30;;
37859;SDS011;23698;52.014;5.190;2023-11-18T05:13:00;60.08;;;27.27;;
37859;SDS011;23698;52.014;5.190;2023-11-18T05:15:48;59.28;;;28.67;;
37859;SDS011;23698;52.014;5.190;2023-11-18T05:18:34;59.50;;;28.35;;
37859;SDS011;23698;52.014;5.190;2023-11-18T05:21:21;56.67;;;28.13;;
37859;SDS011;23698;52.014;5.190;2023-11-18T05:24:08;54.17;;;27.05;;
37859;SDS011;23698;52.014;5.190;2023-11-18T05:26:55;60.65;;;27.55;;
37859;SDS011;23698;52.014;5.190;2023-11-18T05:29:41;62.30;;;28.55;;
37859;SDS011;23698;52.014;5.190;2023-11-18T05:32:29;60.53;;;26.92;;
37859;SDS011;23698;52.014;5.190;2023-11-18T05:35:15;56.40;;;27.08;;
37859;SDS011;23698;52.014;5.190;2023-11-18T05:38:02;64.10;;;26.20;;
37859;SDS011;23698;52.014;5.190;2023-11-18T05:40:51;68.40;;;27.48;;
37859;SDS011;23698;52.014;5.190;2023-11-18T05:46:36;66.22;;;26.77;;
37859;SDS011;23698;52.014;5.190;2023-11-18T05:49:25;63.85;;;29.85;;
37859;SDS011;23698;52.014;5.190;2023-11-18T05:52:11;66.88;;;28.35;;
37859;SDS011;23698;52.014;5.190;2023-11-18T05:54:57;57.15;;;26.85;;
37859;SDS011;23698;52.014;5.190;2023-11-18T05:57:44;74.22;;;28.95;;
37859;SDS011;23698;52.014;5.190;2023-11-18T06:00:30;66.50;;;29.77;;
37859;SDS011;23698;52.014;5.190;2023-11-18T06:03:25;61.72;;;27.08;;
37859;SDS011;23698;52.014;5.190;2023-11-18T06:06:14;58.67;;;27.85;;
37859;SDS011;23698;52.014;5.190;2023-11-18T06:09:07;64.22;;;27.65;;
37859;SDS011;23698;52.014;5.190;2023-11-18T06:12:03;55.83;;;27.60;;
37859;SDS011;23698;52.014;5.190;2023-11-18T06:14:53;59.72;;;27.88;;
37859;SDS011;23698;52.014;5.190;2023-11-18T06:17:40;62.92;;;25.95;;
37859;SDS011;23698;52.014;5.190;2023-11-18T06:20:26;60.45;;;26.70;;
37859;SDS011;23698;52.014;5.190;2023-11-18T06:23:14;60.63;;;25.88;;
37859;SDS011;23698;52.014;5.190;2023-11-18T06:26:03;68.63;;;27.30;;
37859;SDS011;23698;52.014;5.190;2023-11-18T06:28:50;59.78;;;26.15;;
37859;SDS011;23698;52.014;5.190;2023-11-18T06:31:36;61.58;;;26.70;;
37859;SDS011;23698;52.014;5.190;2023-11-18T06:34:23;60.88;;;25.17;;
37859;SDS011;23698;52.014;5.190;2023-11-18T06:37:11;56.55;;;25.20;;
37859;SDS011;23698;52.014;5.190;2023-11-18T06:39:59;53.33;;;25.30;;
37859;SDS011;23698;52.014;5.190;2023-11-18T06:42:46;63.55;;;25.23;;
37859;SDS011;23698;52.014;5.190;2023-11-18T06:45:32;52.78;;;24.88;;
37859;SDS011;23698;52.014;5.190;2023-11-18T06:48:19;55.13;;;25.90;;
37859;SDS011;23698;52.014;5.190;2023-11-18T06:51:07;56.83;;;24.55;;
37859;SDS011;23698;52.014;5.190;2023-11-18T06:53:54;51.33;;;24.27;;
37859;SDS011;23698;52.014;5.190;2023-11-18T06:56:42;55.05;;;24.40;;
37859;SDS011;23698;52.014;5.190;2023-11-18T06:59:30;57.05;;;24.52;;
37859;SDS011;23698;52.014;5.190;2023-11-18T07:02:16;56.70;;;24.52;;
37859;SDS011;23698;52.014;5.190;2023-11-18T07:05:04;60.83;;;25.98;;
37859;SDS011;23698;52.014;5.190;2023-11-18T07:07:51;59.15;;;25.85;;
37859;SDS011;23698;52.014;5.190;2023-11-18T07:10:37;54.85;;;25.55;;
37859;SDS011;23698;52.014;5.190;2023-11-18T07:13:26;56.58;;;25.00;;
37859;SDS011;23698;52.014;5.190;2023-11-18T07:16:12;57.60;;;24.63;;
37859;SDS011;23698;52.014;5.190;2023-11-18T07:18:59;59.42;;;24.52;;
37859;SDS011;23698;52.014;5.190;2023-11-18T07:21:46;57.10;;;25.38;;
37859;SDS011;23698;52.014;5.190;2023-11-18T07:24:33;54.80;;;23.42;;
37859;SDS011;23698;52.014;5.190;2023-11-18T07:27:20;53.30;;;23.42;;
37859;SDS011;23698;52.014;5.190;2023-11-18T07:30:08;62.75;;;24.40;;
37859;SDS011;23698;52.014;5.190;2023-11-18T07:32:56;47.13;;;23.67;;
37859;SDS011;23698;52.014;5.190;2023-11-18T07:35:45;51.20;;;23.08;;
37859;SDS011;23698;52.014;5.190;2023-11-18T07:38:33;55.50;;;23.63;;
37859;SDS011;23698;52.014;5.190;2023-11-18T07:41:19;53.83;;;22.30;;
37859;SDS011;23698;52.014;5.190;2023-11-18T07:44:09;51.00;;;21.97;;
37859;SDS011;23698;52.014;5.190;2023-11-18T07:46:59;47.38;;;21.77;;
37859;SDS011;23698;52.014;5.190;2023-11-18T07:49:45;49.60;;;20.50;;
37859;SDS011;23698;52.014;5.190;2023-11-18T07:52:33;48.50;;;21.13;;
37859;SDS011;23698;52.014;5.190;2023-11-18T07:55:20;49.30;;;22.55;;
37859;SDS011;23698;52.014;5.190;2023-11-18T07:58:08;45.03;;;21.33;;
37859;SDS011;23698;52.014;5.190;2023-11-18T08:00:56;42.85;;;20.58;;
37859;SDS011;23698;52.014;5.190;2023-11-18T08:03:46;44.90;;;21.67;;
37859;SDS011;23698;52.014;5.190;2023-11-18T08:06:32;41.42;;;20.00;;
37859;SDS011;23698;52.014;5.190;2023-11-18T08:09:19;41.78;;;19.38;;
37859;SDS011;23698;52.014;5.190;2023-11-18T08:12:08;41.50;;;19.75;;
37859;SDS011;23698;52.014;5.190;2023-11-18T08:14:54;49.90;;;20.55;;
37859;SDS011;23698;52.014;5.190;2023-11-18T08:17:41;44.28;;;20.17;;
37859;SDS011;23698;52.014;5.190;2023-11-18T08:20:30;46.78;;;18.98;;
37859;SDS011;23698;52.014;5.190;2023-11-18T08:23:16;40.03;;;19.38;;
37859;SDS011;23698;52.014;5.190;2023-11-18T08:26:07;39.20;;;18.60;;
37859;SDS011;23698;52.014;5.190;2023-11-18T08:28:54;40.50;;;18.42;;
37859;SDS011;23698;52.014;5.190;2023-11-18T08:31:41;42.00;;;17.77;;
37859;SDS011;23698;52.014;5.190;2023-11-18T08:34:29;35.97;;;18.35;;
37859;SDS011;23698;52.014;5.190;2023-11-18T08:37:16;37.13;;;18.25;;
37859;SDS011;23698;52.014;5.190;2023-11-18T08:40:04;36.72;;;17.98;;
37859;SDS011;23698;52.014;5.190;2023-11-18T08:42:59;35.40;;;16.60;;
37859;SDS011;23698;52.014;5.190;2023-11-18T08:45:46;32.75;;;15.90;;
37859;SDS011;23698;52.014;5.190;2023-11-18T08:48:35;35.03;;;16.80;;
37859;SDS011;23698;52.014;5.190;2023-11-18T08:51:21;28.38;;;14.57;;
37859;SDS011;23698;52.014;5.190;2023-11-18T08:54:12;31.92;;;14.55;;
37859;SDS011;23698;52.014;5.190;2023-11-18T08:57:10;30.73;;;14.85;;
37859;SDS011;23698;52.014;5.190;2023-11-18T09:00:09;30.13;;;15.02;;
37859;SDS011;23698;52.014;5.190;2023-11-18T09:03:17;34.30;;;13.88;;
37859;SDS011;23698;52.014;5.190;2023-11-18T09:06:09;33.15;;;13.85;;
37859;SDS011;23698;52.014;5.190;2023-11-18T09:09:04;29.23;;;13.27;;
37859;SDS011;23698;52.014;5.190;2023-11-18T09:11:57;33.38;;;14.55;;
37859;SDS011;23698;52.014;5.190;2023-11-18T09:14:43;28.60;;;12.05;;
37859;SDS011;23698;52.014;5.190;2023-11-18T09:17:32;27.20;;;12.55;;
37859;SDS011;23698;52.014;5.190;2023-11-18T09:20:19;26.25;;;11.80;;
37859;SDS011;23698;52.014;5.190;2023-11-18T09:23:07;26.42;;;12.10;;
37859;SDS011;23698;52.014;5.190;2023-11-18T09:25:53;25.10;;;11.73;;
37859;SDS011;23698;52.014;5.190;2023-11-18T09:28:42;26.17;;;11.60;;
37859;SDS011;23698;52.014;5.190;2023-11-18T09:31:30;26.30;;;11.27;;
37859;SDS011;23698;52.014;5.190;2023-11-18T09:34:18;25.25;;;10.77;;
37859;SDS011;23698;52.014;5.190;2023-11-18T09:37:12;29.77;;;10.70;;
37859;SDS011;23698;52.014;5.190;2023-11-18T09:39:58;21.50;;;10.68;;
37859;SDS011;23698;52.014;5.190;2023-11-18T09:42:56;20.63;;;9.35;;
37859;SDS011;23698;52.014;5.190;2023-11-18T09:45:45;25.58;;;10.85;;
37859;SDS011;23698;52.014;5.190;2023-11-18T09:48:33;20.95;;;10.55;;
37859;SDS011;23698;52.014;5.190;2023-11-18T09:51:26;19.65;;;10.65;;
37859;SDS011;23698;52.014;5.190;2023-11-18T09:54:19;24.27;;;11.02;;
37859;SDS011;23698;52.014;5.190;2023-11-18T09:57:19;23.75;;;10.18;;
37859;SDS011;23698;52.014;5.190;2023-11-18T10:00:15;24.35;;;10.23;;
37859;SDS011;23698;52.014;5.190;2023-11-18T10:03:13;18.90;;;8.50;;
37859;SDS011;23698;52.014;5.190;2023-11-18T10:06:01;19.58;;;8.63;;
37859;SDS011;23698;52.014;5.190;2023-11-18T10:08:50;21.35;;;8.60;;
37859;SDS011;23698;52.014;5.190;2023-11-18T10:11:38;19.38;;;8.63;;
37859;SDS011;23698;52.014;5.190;2023-11-18T10:14:26;20.63;;;8.70;;
37859;SDS011;23698;52.014;5.190;2023-11-18T10:17:13;24.38;;;8.77;;
37859;SDS011;23698;52.014;5.190;2023-11-18T10:20:01;16.95;;;7.10;;
37859;SDS011;23698;52.014;5.190;2023-11-18T10:23:07;19.95;;;7.93;;
37859;SDS011;23698;52.014;5.190;2023-11-18T10:25:56;16.63;;;7.97;;
37859;SDS011;23698;52.014;5.190;2023-11-18T10:28:46;17.15;;;6.07;;
37859;SDS011;23698;52.014;5.190;2023-11-18T10:31:34;18.80;;;6.82;;
37859;SDS011;23698;52.014;5.190;2023-11-18T10:34:21;21.15;;;7.20;;
37859;SDS011;23698;52.014;5.190;2023-11-18T10:37:09;17.90;;;6.68;;
37859;SDS011;23698;52.014;5.190;2023-11-18T10:39:56;13.57;;;6.25;;
37859;SDS011;23698;52.014;5.190;2023-11-18T10:42:43;16.50;;;5.57;;
37859;SDS011;23698;52.014;5.190;2023-11-18T10:45:33;14.82;;;6.00;;
37859;SDS011;23698;52.014;5.190;2023-11-18T10:48:26;17.38;;;6.38;;
37859;SDS011;23698;52.014;5.190;2023-11-18T10:51:14;11.52;;;4.82;;
37859;SDS011;23698;52.014;5.190;2023-11-18T10:57:00;13.57;;;5.47;;
37859;SDS011;23698;52.014;5.190;2023-11-18T10:59:59;15.30;;;5.95;;
37859;SDS011;23698;52.014;5.190;2023-11-18T11:02:46;16.55;;;6.32;;
37859;SDS011;23698;52.014;5.190;2023-11-18T11:05:35;13.70;;;5.45;;
37859;SDS011;23698;52.014;5.190;2023-11-18T11:08:26;12.73;;;5.85;;
37859;SDS011;23698;52.014;5.190;2023-11-18T11:11:28;10.52;;;5.72;;
37859;SDS011;23698;52.014;5.190;2023-11-18T11:14:24;17.38;;;5.93;;
37859;SDS011;23698;52.014;5.190;2023-11-18T11:17:20;12.30;;;6.53;;
37859;SDS011;23698;52.014;5.190;2023-11-18T11:20:14;20.40;;;6.72;;
37859;SDS011;23698;52.014;5.190;2023-11-18T11:23:14;17.23;;;5.95;;
37859;SDS011;23698;52.014;5.190;2023-11-18T11:26:10;10.77;;;5.07;;
37859;SDS011;23698;52.014;5.190;2023-11-18T11:29:11;18.85;;;5.43;;
37859;SDS011;23698;52.014;5.190;2023-11-18T11:32:11;14.65;;;5.70;;
37859;SDS011;23698;52.014;5.190;2023-11-18T11:35:06;13.05;;;6.00;;
37859;SDS011;23698;52.014;5.190;2023-11-18T11:38:04;15.32;;;5.55;;
37859;SDS011;23698;52.014;5.190;2023-11-18T11:40:55;17.05;;;5.47;;
37859;SDS011;23698;52.014;5.190;2023-11-18T11:43:45;14.55;;;6.45;;
37859;SDS011;23698;52.014;5.190;2023-11-18T11:46:34;15.43;;;5.72;;
37859;SDS011;23698;52.014;5.190;2023-11-18T11:49:22;16.85;;;5.97;;
37859;SDS011;23698;52.014;5.190;2023-11-18T11:52:14;14.85;;;5.90;;
37859;SDS011;23698;52.014;5.190;2023-11-18T11:55:07;16.13;;;5.35;;
37859;SDS011;23698;52.014;5.190;2023-11-18T11:57:57;11.63;;;5.90;;
37859;SDS011;23698;52.014;5.190;2023-11-18T12:00:44;16.25;;;5.90;;
37859;SDS011;23698;52.014;5.190;2023-11-18T12:03:36;14.43;;;6.60;;
37859;SDS011;23698;52.014;5.190;2023-11-18T12:06:30;15.30;;;6.07;;
37859;SDS011;23698;52.014;5.190;2023-11-18T12:09:19;17.05;;;6.95;;
37859;SDS011;23698;52.014;5.190;2023-11-18T12:12:13;14.80;;;6.13;;
37859;SDS011;23698;52.014;5.190;2023-11-18T12:15:06;14.75;;;5.55;;
37859;SDS011;23698;52.014;5.190;2023-11-18T12:18:09;10.48;;;5.20;;
37859;SDS011;23698;52.014;5.190;2023-11-18T12:27:03;14.43;;;5.45;;
37859;SDS011;23698;52.014;5.190;2023-11-18T12:29:55;17.00;;;5.65;;
37859;SDS011;23698;52.014;5.190;2023-11-18T12:32:57;19.67;;;5.43;;
37859;SDS011;23698;52.014;5.190;2023-11-18T12:35:57;11.68;;;4.88;;
37859;SDS011;23698;52.014;5.190;2023-11-18T12:39:37;12.38;;;5.30;;
37859;SDS011;23698;52.014;5.190;2023-11-18T12:42:47;14.10;;;5.20;;
37859;SDS011;23698;52.014;5.190;2023-11-18T12:45:55;7.88;;;4.72;;
37859;SDS011;23698;52.014;5.190;2023-11-18T12:49:05;11.80;;;4.57;;
37859;SDS011;23698;52.014;5.190;2023-11-18T12:52:00;8.88;;;4.93;;
37859;SDS011;23698;52.014;5.190;2023-11-18T12:54:54;13.93;;;5.00;;
37859;SDS011;23698;52.014;5.190;2023-11-18T12:57:45;11.10;;;5.10;;
37859;SDS011;23698;52.014;5.190;2023-11-18T13:00:32;14.40;;;5.55;;
37859;SDS011;23698;52.014;5.190;2023-11-18T13:03:20;12.23;;;4.75;;
37859;SDS011;23698;52.014;5.190;2023-11-18T13:06:08;12.63;;;4.53;;
37859;SDS011;23698;52.014;5.190;2023-11-18T13:08:56;10.80;;;4.75;;
37859;SDS011;23698;52.014;5.190;2023-11-18T13:11:45;12.18;;;4.65;;
37859;SDS011;23698;52.014;5.190;2023-11-18T13:14:32;9.93;;;4.05;;
37859;SDS011;23698;52.014;5.190;2023-11-18T13:17:22;12.97;;;4.33;;
37859;SDS011;23698;52.014;5.190;2023-11-18T13:20:11;9.32;;;4.10;;
37859;SDS011;23698;52.014;5.190;2023-11-18T13:22:59;7.18;;;3.17;;
37859;SDS011;23698;52.014;5.190;2023-11-18T13:25:46;8.48;;;5.15;;
37859;SDS011;23698;52.014;5.190;2023-11-18T13:28:34;8.88;;;3.35;;
37859;SDS011;23698;52.014;5.190;2023-11-18T13:31:21;6.10;;;3.10;;
37859;SDS011;23698;52.014;5.190;2023-11-18T13:34:07;8.18;;;2.80;;
37859;SDS011;23698;52.014;5.190;2023-11-18T13:36:56;8.43;;;3.33;;
37859;SDS011;23698;52.014;5.190;2023-11-18T13:39:42;7.85;;;3.38;;
37859;SDS011;23698;52.014;5.190;2023-11-18T13:42:32;8.75;;;2.70;;
37859;SDS011;23698;52.014;5.190;2023-11-18T13:45:21;4.85;;;2.90;;
37859;SDS011;23698;52.014;5.190;2023-11-18T13:48:22;3.47;;;2.38;;
37859;SDS011;23698;52.014;5.190;2023-11-18T13:51:09;3.60;;;2.40;;
37859;SDS011;23698;52.014;5.190;2023-11-18T13:53:58;6.70;;;2.60;;
37859;SDS011;23698;52.014;5.190;2023-11-18T13:56:45;7.32;;;2.55;;
37859;SDS011;23698;52.014;5.190;2023-11-18T13:59:32;3.20;;;2.13;;
37859;SDS011;23698;52.014;5.190;2023-11-18T14:02:20;4.15;;;2.10;;
37859;SDS011;23698;52.014;5.190;2023-11-18T14:05:14;4.43;;;2.15;;
37859;SDS011;23698;52.014;5.190;2023-11-18T14:08:02;4.00;;;2.28;;
37859;SDS011;23698;52.014;5.190;2023-11-18T14:10:55;6.60;;;2.60;;
37859;SDS011;23698;52.014;5.190;2023-11-18T14:13:48;5.63;;;2.55;;
37859;SDS011;23698;52.014;5.190;2023-11-18T14:16:37;6.60;;;3.08;;
37859;SDS011;23698;52.014;5.190;2023-11-18T14:19:26;3.38;;;2.30;;
37859;SDS011;23698;52.014;5.190;2023-11-18T14:22:13;5.72;;;2.65;;
37859;SDS011;23698;52.014;5.190;2023-11-18T14:24:59;4.63;;;2.15;;
37859;SDS011;23698;52.014;5.190;2023-11-18T14:27:45;3.90;;;2.20;;
37859;SDS011;23698;52.014;5.190;2023-11-18T14:30:32;4.88;;;2.30;;
37859;SDS011;23698;52.014;5.190;2023-11-18T14:33:20;3.17;;;2.08;;
37859;SDS011;23698;52.014;5.190;2023-11-18T14:36:08;5.05;;;2.40;;
37859;SDS011;23698;52.014;5.190;2023-11-18T14:38:56;4.07;;;2.25;;
37859;SDS011;23698;52.014;5.190;2023-11-18T14:41:43;3.65;;;2.00;;
37859;SDS011;23698;52.014;5.190;2023-11-18T14:44:30;2.58;;;1.83;;
37859;SDS011;23698;52.014;5.190;2023-11-18T14:47:17;5.25;;;2.00;;
37859;SDS011;23698;52.014;5.190;2023-11-18T14:50:04;3.75;;;1.80;;
37859;SDS011;23698;52.014;5.190;2023-11-18T14:53:01;5.07;;;2.22;;
37859;SDS011;23698;52.014;5.190;2023-11-18T14:55:48;5.25;;;1.88;;
37859;SDS011;23698;52.014;5.190;2023-11-18T14:58:35;3.58;;;1.70;;
37859;SDS011;23698;52.014;5.190;2023-11-18T15:01:22;2.92;;;2.35;;
37859;SDS011;23698;52.014;5.190;2023-11-18T15:04:08;3.30;;;2.20;;
37859;SDS011;23698;52.014;5.190;2023-11-18T15:06:56;3.83;;;1.70;;
37859;SDS011;23698;52.014;5.190;2023-11-18T15:09:44;3.60;;;1.98;;
37859;SDS011;23698;52.014;5.190;2023-11-18T15:12:31;4.18;;;1.80;;
37859;SDS011;23698;52.014;5.190;2023-11-18T15:15:18;4.18;;;1.50;;
37859;SDS011;23698;52.014;5.190;2023-11-18T15:18:05;3.63;;;1.55;;
37859;SDS011;23698;52.014;5.190;2023-11-18T15:20:54;2.03;;;1.63;;
37859;SDS011;23698;52.014;5.190;2023-11-18T15:23:41;2.22;;;1.50;;
37859;SDS011;23698;52.014;5.190;2023-11-18T15:26:29;3.88;;;1.17;;
37859;SDS011;23698;52.014;5.190;2023-11-18T15:29:16;1.60;;;1.27;;
37859;SDS011;23698;52.014;5.190;2023-11-18T15:32:02;1.58;;;1.38;;
37859;SDS011;23698;52.014;5.190;2023-11-18T15:34:49;3.28;;;1.60;;
37859;SDS011;23698;52.014;5.190;2023-11-18T15:37:36;2.08;;;1.55;;
37859;SDS011;23698;52.014;5.190;2023-11-18T15:40:26;1.77;;;1.50;;
37859;SDS011;23698;52.014;5.190;2023-11-18T15:43:17;2.25;;;1.52;;
37859;SDS011;23698;52.014;5.190;2023-11-18T15:46:04;2.42;;;2.15;;
37859;SDS011;23698;52.014;5.190;2023-11-18T15:48:51;2.25;;;1.70;;
37859;SDS011;23698;52.014;5.190;2023-11-18T15:51:39;2.13;;;1.80;;
37859;SDS011;23698;52.014;5.190;2023-11-18T15:54:26;2.38;;;1.88;;
37859;SDS011;23698;52.014;5.190;2023-11-18T15:57:12;3.22;;;2.10;;
37859;SDS011;23698;52.014;5.190;2023-11-18T16:00:00;4.20;;;2.58;;
37859;SDS011;23698;52.014;5.190;2023-11-18T16:02:52;3.17;;;2.47;;
37859;SDS011;23698;52.014;5.190;2023-11-18T16:05:43;2.88;;;2.30;;
37859;SDS011;23698;52.014;5.190;2023-11-18T16:08:29;3.20;;;2.70;;
37859;SDS011;23698;52.014;5.190;2023-11-18T16:11:16;3.15;;;2.47;;
37859;SDS011;23698;52.014;5.190;2023-11-18T16:14:02;2.28;;;2.08;;
37859;SDS011;23698;52.014;5.190;2023-11-18T16:16:51;6.45;;;2.20;;
37859;SDS011;23698;52.014;5.190;2023-11-18T16:19:37;2.40;;;2.20;;
37859;SDS011;23698;52.014;5.190;2023-11-18T16:22:24;3.38;;;2.30;;
37859;SDS011;23698;52.014;5.190;2023-11-18T16:25:10;2.60;;;2.25;;
37859;SDS011;23698;52.014;5.190;2023-11-18T16:27:57;3.17;;;2.88;;
37859;SDS011;23698;52.014;5.190;2023-11-18T16:30:47;3.00;;;2.38;;
37859;SDS011;23698;52.014;5.190;2023-11-18T16:33:37;3.67;;;2.90;;
37859;SDS011;23698;52.014;5.190;2023-11-18T16:36:23;3.95;;;3.58;;
37859;SDS011;23698;52.014;5.190;2023-11-18T16:39:10;3.65;;;3.22;;
37859;SDS011;23698;52.014;5.190;2023-11-18T16:41:57;4.63;;;3.40;;
37859;SDS011;23698;52.014;5.190;2023-11-18T16:44:44;3.72;;;3.13;;
37859;SDS011;23698;52.014;5.190;2023-11-18T16:47:32;8.52;;;6.10;;
37859;SDS011;23698;52.014;5.190;2023-11-18T16:50:23;4.10;;;3.40;;